Lake Superior Provincial Park, Ontario

Past 24 Hour Conditions

This table is a summary of hourly weather conditions for the past 24 hours. This summary includes the following parameters: temperature, humidity, dew point, wind speed and direction, air pressure, visibility and/or wind chill and humidex.
Date / Time
(EDT)
Conditions Temp (°F) Humidity (%) Dew Point (°F) Wind (mph) Pressure (inches) Vis (mi) Humidex
22 July 2014
9:00 N/A 67 84 62 S 4 29.9 N/A *
8:00 N/A 68 81 62 S 4 29.9 N/A *
7:00 N/A 66 78 59 SSE 3 29.9 N/A *
6:00 N/A 64   79 58 S 7 29.9 N/A *
5:00 N/A 65 80 58 SSE 5 29.9 N/A *
4:00 N/A 64   86 60 S 6 29.9 N/A *
3:00 N/A 64   88 60 SSE 2 29.9 N/A *
2:00 N/A 64   87 60 SSE 4 30.0 N/A *
1:00 N/A 65 86 61 SSE 2 30.0 N/A *
00:00 N/A 66 85 61 SSE 6 30.0 N/A *
21 July 2014
23:00 N/A 66 84 61 SSE 3 30.0 N/A *
22:00 N/A 68 82 62 SSE 4 30.0 N/A *
21:00 N/A 70 79 63 SSE 4 30.0 N/A 80
20:00 N/A 72 76 64 SSE 3 30.0 N/A 83
19:00 N/A 74 75 66 SSW 3 30.0 N/A 86
18:00 N/A 75   72 65 S 4 29.9 N/A 86
17:00 N/A 72 79 65 S 2 30.0 N/A 83
16:00 N/A 70 81 64 SSE 3 30.0 N/A 81
15:00 N/A 69 84 64 S 4 30.0 N/A 79
14:00 N/A 66 89 63 S 2 30.0 N/A *
13:00 N/A 66 85 61 SSE 3 30.0 N/A *
12:00 N/A 66 86 61 SSW 6 30.0 N/A *
11:00 N/A 66 84 61 SSW 4 29.9 N/A *
10:00 N/A 66 81 60 SSW 5 29.9 N/A *
9:00 N/A 66 81 60 SSW 7 29.9 N/A *
N/A
Not available
 ↑ 
Highest temperature
 ↓ 
Lowest temperature
*
Value not significant.

If you require additional historical weather information, please visit Climate Data Online.